sensor_id;sensor_type;location;lat;lon;timestamp;pressure;altitude;pressure_sealevel;temperature;humidity
72428;BME280;60419;48.880;18.036;2023-04-15T00:02:35;97868.66;;;4.92;73.72
72428;BME280;60419;48.880;18.036;2023-04-15T00:05:21;97868.78;;;5.01;73.98
72428;BME280;60419;48.880;18.036;2023-04-15T00:08:06;97864.44;;;5.05;74.30
72428;BME280;60419;48.880;18.036;2023-04-15T00:10:52;97860.63;;;5.20;73.95
72428;BME280;60419;48.880;18.036;2023-04-15T00:13:37;97858.47;;;4.94;74.35
72428;BME280;60419;48.880;18.036;2023-04-15T00:16:24;97851.78;;;4.91;74.72
72428;BME280;60419;48.880;18.036;2023-04-15T00:19:09;97871.91;;;4.89;75.31
72428;BME280;60419;48.880;18.036;2023-04-15T00:21:55;97865.31;;;5.14;74.38
72428;BME280;60419;48.880;18.036;2023-04-15T00:24:41;97865.91;;;5.11;74.44
72428;BME280;60419;48.880;18.036;2023-04-15T00:27:27;97874.81;;;5.06;75.28
72428;BME280;60419;48.880;18.036;2023-04-15T00:30:12;97872.81;;;4.84;75.55
72428;BME280;60419;48.880;18.036;2023-04-15T00:32:57;97876.03;;;5.00;74.95
72428;BME280;60419;48.880;18.036;2023-04-15T00:35:43;97876.53;;;5.02;74.81
72428;BME280;60419;48.880;18.036;2023-04-15T00:38:28;97868.50;;;5.16;74.01
72428;BME280;60419;48.880;18.036;2023-04-15T00:41:14;97876.31;;;5.26;74.17
72428;BME280;60419;48.880;18.036;2023-04-15T00:44:00;97877.28;;;5.44;73.68
72428;BME280;60419;48.880;18.036;2023-04-15T00:46:46;97880.66;;;5.36;73.42
72428;BME280;60419;48.880;18.036;2023-04-15T00:49:32;97875.63;;;5.21;73.66
72428;BME280;60419;48.880;18.036;2023-04-15T00:52:18;97882.63;;;5.30;73.59
72428;BME280;60419;48.880;18.036;2023-04-15T00:55:04;97895.53;;;5.14;73.90
72428;BME280;60419;48.880;18.036;2023-04-15T00:57:49;97881.47;;;5.37;73.18
72428;BME280;60419;48.880;18.036;2023-04-15T01:00:36;97892.88;;;5.42;73.25
72428;BME280;60419;48.880;18.036;2023-04-15T01:03:21;97888.59;;;5.55;72.21
72428;BME280;60419;48.880;18.036;2023-04-15T01:06:07;97889.25;;;5.61;72.24
72428;BME280;60419;48.880;18.036;2023-04-15T01:08:53;97890.09;;;5.47;72.04
72428;BME280;60419;48.880;18.036;2023-04-15T01:11:38;97893.63;;;5.70;71.53
72428;BME280;60419;48.880;18.036;2023-04-15T01:14:24;97886.53;;;6.11;70.76
72428;BME280;60419;48.880;18.036;2023-04-15T01:17:10;97876.13;;;6.09;69.82
72428;BME280;60419;48.880;18.036;2023-04-15T01:19:55;97884.03;;;5.92;70.05
72428;BME280;60419;48.880;18.036;2023-04-15T01:22:43;97883.47;;;5.81;70.40
72428;BME280;60419;48.880;18.036;2023-04-15T01:25:33;97889.06;;;5.93;70.94
72428;BME280;60419;48.880;18.036;2023-04-15T01:28:19;97890.06;;;5.97;70.80
72428;BME280;60419;48.880;18.036;2023-04-15T01:31:09;97887.81;;;6.13;70.22
72428;BME280;60419;48.880;18.036;2023-04-15T01:33:54;97888.06;;;6.26;69.61
72428;BME280;60419;48.880;18.036;2023-04-15T01:36:40;97888.41;;;5.88;71.08
72428;BME280;60419;48.880;18.036;2023-04-15T01:39:26;97880.06;;;6.34;69.65
72428;BME280;60419;48.880;18.036;2023-04-15T01:42:11;97887.72;;;6.41;69.49
72428;BME280;60419;48.880;18.036;2023-04-15T01:44:56;97859.44;;;6.12;69.25
72428;BME280;60419;48.880;18.036;2023-04-15T01:47:42;97874.69;;;6.57;69.28
72428;BME280;60419;48.880;18.036;2023-04-15T01:50:27;97869.09;;;6.44;68.72
72428;BME280;60419;48.880;18.036;2023-04-15T01:53:14;97866.19;;;6.63;68.17
72428;BME280;60419;48.880;18.036;2023-04-15T01:56:00;97861.91;;;6.31;69.58
72428;BME280;60419;48.880;18.036;2023-04-15T01:58:45;97855.25;;;6.51;68.92
72428;BME280;60419;48.880;18.036;2023-04-15T02:01:31;97852.50;;;6.42;68.63
72428;BME280;60419;48.880;18.036;2023-04-15T02:04:16;97838.81;;;6.21;68.56
72428;BME280;60419;48.880;18.036;2023-04-15T02:07:02;97854.16;;;6.30;69.05
72428;BME280;60419;48.880;18.036;2023-04-15T02:09:48;97855.16;;;6.11;69.58
72428;BME280;60419;48.880;18.036;2023-04-15T02:12:33;97841.63;;;6.16;69.02
72428;BME280;60419;48.880;18.036;2023-04-15T02:15:18;97854.41;;;6.19;69.47
72428;BME280;60419;48.880;18.036;2023-04-15T02:18:04;97849.78;;;6.34;69.37
72428;BME280;60419;48.880;18.036;2023-04-15T02:20:51;97841.31;;;6.18;69.95
72428;BME280;60419;48.880;18.036;2023-04-15T02:23:36;97854.56;;;6.14;69.41
72428;BME280;60419;48.880;18.036;2023-04-15T02:26:22;97860.94;;;6.27;69.81
72428;BME280;60419;48.880;18.036;2023-04-15T02:29:09;97872.88;;;6.21;69.44
72428;BME280;60419;48.880;18.036;2023-04-15T02:31:54;97871.97;;;6.03;69.87
72428;BME280;60419;48.880;18.036;2023-04-15T02:34:41;97867.94;;;5.92;70.54
72428;BME280;60419;48.880;18.036;2023-04-15T02:37:27;97868.13;;;6.40;69.86
72428;BME280;60419;48.880;18.036;2023-04-15T02:40:14;97867.38;;;6.04;70.45
72428;BME280;60419;48.880;18.036;2023-04-15T02:42:59;97863.13;;;6.48;69.61
72428;BME280;60419;48.880;18.036;2023-04-15T02:45:45;97847.19;;;6.20;69.39
72428;BME280;60419;48.880;18.036;2023-04-15T02:48:31;97873.69;;;6.44;69.28
72428;BME280;60419;48.880;18.036;2023-04-15T02:51:18;97868.38;;;6.30;69.78
72428;BME280;60419;48.880;18.036;2023-04-15T02:54:04;97871.56;;;6.63;69.05
72428;BME280;60419;48.880;18.036;2023-04-15T02:56:50;97868.59;;;6.42;69.51
72428;BME280;60419;48.880;18.036;2023-04-15T02:59:36;97880.94;;;6.43;69.55
72428;BME280;60419;48.880;18.036;2023-04-15T03:02:21;97861.44;;;6.92;68.84
72428;BME280;60419;48.880;18.036;2023-04-15T03:05:11;97862.03;;;6.26;71.41
72428;BME280;60419;48.880;18.036;2023-04-15T03:07:57;97867.44;;;6.35;71.03
72428;BME280;60419;48.880;18.036;2023-04-15T03:10:42;97860.63;;;6.06;71.19
72428;BME280;60419;48.880;18.036;2023-04-15T03:13:27;97863.78;;;6.53;70.60
72428;BME280;60419;48.880;18.036;2023-04-15T03:16:13;97863.28;;;6.20;71.88
72428;BME280;60419;48.880;18.036;2023-04-15T03:18:58;97853.22;;;6.26;71.43
72428;BME280;60419;48.880;18.036;2023-04-15T03:21:43;97875.19;;;6.36;71.72
72428;BME280;60419;48.880;18.036;2023-04-15T03:24:29;97865.38;;;5.87;73.31
72428;BME280;60419;48.880;18.036;2023-04-15T03:27:14;97860.84;;;6.10;73.03
72428;BME280;60419;48.880;18.036;2023-04-15T03:30:00;97857.00;;;6.56;71.91
72428;BME280;60419;48.880;18.036;2023-04-15T03:32:45;97859.06;;;6.05;73.00
72428;BME280;60419;48.880;18.036;2023-04-15T03:35:31;97855.63;;;5.91;74.45
72428;BME280;60419;48.880;18.036;2023-04-15T03:38:17;97854.78;;;6.27;72.80
72428;BME280;60419;48.880;18.036;2023-04-15T03:41:02;97866.72;;;5.98;74.05
72428;BME280;60419;48.880;18.036;2023-04-15T03:43:48;97870.56;;;6.06;73.85
72428;BME280;60419;48.880;18.036;2023-04-15T03:46:33;97883.28;;;6.45;72.34
72428;BME280;60419;48.880;18.036;2023-04-15T03:49:19;97896.97;;;6.12;73.64
72428;BME280;60419;48.880;18.036;2023-04-15T03:52:04;97897.81;;;6.21;73.96
72428;BME280;60419;48.880;18.036;2023-04-15T03:54:50;97895.63;;;6.23;73.54
72428;BME280;60419;48.880;18.036;2023-04-15T03:57:35;97894.81;;;6.45;73.58
72428;BME280;60419;48.880;18.036;2023-04-15T04:00:23;97880.72;;;6.62;72.21
72428;BME280;60419;48.880;18.036;2023-04-15T04:03:08;97810.94;;;6.00;74.00
72428;BME280;60419;48.880;18.036;2023-04-15T04:05:54;97888.97;;;6.43;73.72
72428;BME280;60419;48.880;18.036;2023-04-15T04:08:39;97889.69;;;6.58;73.77
72428;BME280;60419;48.880;18.036;2023-04-15T04:11:25;97887.78;;;6.58;74.01
72428;BME280;60419;48.880;18.036;2023-04-15T04:14:10;97893.22;;;6.67;73.27
72428;BME280;60419;48.880;18.036;2023-04-15T04:16:55;97891.19;;;6.73;73.11
72428;BME280;60419;48.880;18.036;2023-04-15T04:19:41;97885.78;;;6.64;72.60
72428;BME280;60419;48.880;18.036;2023-04-15T04:22:26;97892.72;;;6.65;72.71
72428;BME280;60419;48.880;18.036;2023-04-15T04:25:12;97901.53;;;6.57;73.51
72428;BME280;60419;48.880;18.036;2023-04-15T04:27:58;97899.88;;;7.01;72.26
72428;BME280;60419;48.880;18.036;2023-04-15T04:30:44;97907.06;;;7.31;70.80
72428;BME280;60419;48.880;18.036;2023-04-15T04:33:29;97912.25;;;7.19;70.86
72428;BME280;60419;48.880;18.036;2023-04-15T04:36:15;97908.66;;;7.32;71.14
72428;BME280;60419;48.880;18.036;2023-04-15T04:39:01;97918.03;;;7.44;70.07
72428;BME280;60419;48.880;18.036;2023-04-15T04:41:46;97912.72;;;7.70;69.88
72428;BME280;60419;48.880;18.036;2023-04-15T04:44:31;97917.31;;;7.61;69.52
72428;BME280;60419;48.880;18.036;2023-04-15T04:47:17;97913.94;;;7.06;71.83
72428;BME280;60419;48.880;18.036;2023-04-15T04:50:02;97919.66;;;7.53;70.32
72428;BME280;60419;48.880;18.036;2023-04-15T04:52:49;97923.19;;;7.31;71.11
72428;BME280;60419;48.880;18.036;2023-04-15T04:55:34;97924.69;;;7.55;70.97
72428;BME280;60419;48.880;18.036;2023-04-15T04:58:22;97925.38;;;7.78;69.17
72428;BME280;60419;48.880;18.036;2023-04-15T05:01:08;97923.47;;;7.70;69.32
72428;BME280;60419;48.880;18.036;2023-04-15T05:03:54;97924.88;;;7.50;69.63
72428;BME280;60419;48.880;18.036;2023-04-15T05:06:39;97919.22;;;7.69;69.67
72428;BME280;60419;48.880;18.036;2023-04-15T05:09:24;97923.22;;;7.97;69.21
72428;BME280;60419;48.880;18.036;2023-04-15T05:12:10;97921.63;;;7.88;69.08
72428;BME280;60419;48.880;18.036;2023-04-15T05:14:59;97921.44;;;7.67;70.45
72428;BME280;60419;48.880;18.036;2023-04-15T05:17:44;97923.59;;;7.47;70.85
72428;BME280;60419;48.880;18.036;2023-04-15T05:20:29;97928.66;;;7.49;71.26
72428;BME280;60419;48.880;18.036;2023-04-15T05:23:15;97925.09;;;7.88;69.94
72428;BME280;60419;48.880;18.036;2023-04-15T05:26:01;97921.41;;;7.58;70.70
72428;BME280;60419;48.880;18.036;2023-04-15T05:28:47;97926.06;;;7.92;69.18
72428;BME280;60419;48.880;18.036;2023-04-15T05:31:32;97915.31;;;8.10;69.22
72428;BME280;60419;48.880;18.036;2023-04-15T05:34:17;97928.44;;;8.29;68.11
72428;BME280;60419;48.880;18.036;2023-04-15T05:37:03;97918.00;;;8.27;68.43
72428;BME280;60419;48.880;18.036;2023-04-15T05:39:48;97921.16;;;8.38;68.00
72428;BME280;60419;48.880;18.036;2023-04-15T05:42:34;97936.19;;;8.22;68.86
72428;BME280;60419;48.880;18.036;2023-04-15T05:45:19;97931.28;;;7.97;68.97
72428;BME280;60419;48.880;18.036;2023-04-15T05:48:05;97925.88;;;7.89;69.55
72428;BME280;60419;48.880;18.036;2023-04-15T05:50:51;97936.03;;;8.01;68.38
72428;BME280;60419;48.880;18.036;2023-04-15T05:53:36;97938.38;;;7.93;69.07
72428;BME280;60419;48.880;18.036;2023-04-15T05:56:22;97943.16;;;8.05;68.45
72428;BME280;60419;48.880;18.036;2023-04-15T05:59:07;97937.88;;;7.74;69.51
72428;BME280;60419;48.880;18.036;2023-04-15T06:01:53;97932.31;;;7.62;69.78
72428;BME280;60419;48.880;18.036;2023-04-15T06:04:38;97944.44;;;8.08;68.73
72428;BME280;60419;48.880;18.036;2023-04-15T06:07:23;97947.34;;;7.63;69.92
72428;BME280;60419;48.880;18.036;2023-04-15T06:10:09;97947.69;;;7.70;70.65
72428;BME280;60419;48.880;18.036;2023-04-15T06:12:54;97950.56;;;7.91;69.94
72428;BME280;60419;48.880;18.036;2023-04-15T06:15:40;97942.81;;;7.89;70.01
72428;BME280;60419;48.880;18.036;2023-04-15T06:18:25;97940.91;;;7.98;69.96
72428;BME280;60419;48.880;18.036;2023-04-15T06:21:10;97875.72;;;7.75;69.39
72428;BME280;60419;48.880;18.036;2023-04-15T06:23:57;97942.84;;;8.33;68.90
72428;BME280;60419;48.880;18.036;2023-04-15T06:26:43;97938.56;;;8.58;67.98
72428;BME280;60419;48.880;18.036;2023-04-15T06:29:29;97921.94;;;8.30;67.96
72428;BME280;60419;48.880;18.036;2023-04-15T06:32:14;97938.41;;;8.11;68.80
72428;BME280;60419;48.880;18.036;2023-04-15T06:35:00;97942.16;;;7.84;69.82
72428;BME280;60419;48.880;18.036;2023-04-15T06:37:45;97928.09;;;7.87;69.51
72428;BME280;60419;48.880;18.036;2023-04-15T06:40:31;97944.28;;;8.13;69.33
72428;BME280;60419;48.880;18.036;2023-04-15T06:43:16;97949.31;;;8.14;68.56
72428;BME280;60419;48.880;18.036;2023-04-15T06:46:02;97942.22;;;8.36;69.21
72428;BME280;60419;48.880;18.036;2023-04-15T06:48:47;97947.28;;;8.29;68.53
72428;BME280;60419;48.880;18.036;2023-04-15T06:51:34;97944.09;;;8.70;67.76
72428;BME280;60419;48.880;18.036;2023-04-15T06:54:20;97942.66;;;8.73;67.65
72428;BME280;60419;48.880;18.036;2023-04-15T06:57:05;97941.41;;;8.53;67.47
72428;BME280;60419;48.880;18.036;2023-04-15T06:59:51;97945.31;;;8.81;67.45
72428;BME280;60419;48.880;18.036;2023-04-15T07:02:38;97936.94;;;8.83;67.19
72428;BME280;60419;48.880;18.036;2023-04-15T07:05:24;97948.97;;;8.77;66.59
72428;BME280;60419;48.880;18.036;2023-04-15T07:08:09;97941.53;;;8.56;67.61
72428;BME280;60419;48.880;18.036;2023-04-15T07:10:54;97954.03;;;8.70;66.48
72428;BME280;60419;48.880;18.036;2023-04-15T07:13:40;97948.50;;;8.83;66.78
72428;BME280;60419;48.880;18.036;2023-04-15T07:16:25;97955.38;;;9.11;65.95
72428;BME280;60419;48.880;18.036;2023-04-15T07:19:11;97956.63;;;9.31;65.33
72428;BME280;60419;48.880;18.036;2023-04-15T07:21:56;97960.56;;;9.71;64.16
72428;BME280;60419;48.880;18.036;2023-04-15T07:24:41;97957.22;;;9.36;64.65
72428;BME280;60419;48.880;18.036;2023-04-15T07:27:27;97966.03;;;9.54;64.38
72428;BME280;60419;48.880;18.036;2023-04-15T07:30:12;97968.34;;;9.64;64.34
72428;BME280;60419;48.880;18.036;2023-04-15T07:32:58;97973.47;;;10.08;62.76
72428;BME280;60419;48.880;18.036;2023-04-15T07:35:43;97977.22;;;9.94;62.76
72428;BME280;60419;48.880;18.036;2023-04-15T07:38:29;97975.19;;;9.91;62.74
72428;BME280;60419;48.880;18.036;2023-04-15T07:41:14;97966.25;;;10.21;65.26
72428;BME280;60419;48.880;18.036;2023-04-15T07:44:00;97965.47;;;10.95;60.62
72428;BME280;60419;48.880;18.036;2023-04-15T07:46:46;97970.16;;;10.65;60.94
72428;BME280;60419;48.880;18.036;2023-04-15T07:49:32;97970.16;;;10.32;63.69
72428;BME280;60419;48.880;18.036;2023-04-15T07:52:17;97968.97;;;9.70;62.63
72428;BME280;60419;48.880;18.036;2023-04-15T07:55:04;97972.25;;;10.26;63.78
72428;BME280;60419;48.880;18.036;2023-04-15T07:57:51;97974.66;;;9.98;64.82
72428;BME280;60419;48.880;18.036;2023-04-15T08:00:36;97974.59;;;9.56;64.86
72428;BME280;60419;48.880;18.036;2023-04-15T08:03:24;97990.84;;;9.21;64.78
72428;BME280;60419;48.880;18.036;2023-04-15T08:06:09;97985.44;;;9.39;64.53
72428;BME280;60419;48.880;18.036;2023-04-15T08:08:55;97982.03;;;8.95;66.26
72428;BME280;60419;48.880;18.036;2023-04-15T08:11:40;97995.91;;;10.00;65.99
72428;BME280;60419;48.880;18.036;2023-04-15T08:14:26;97996.16;;;9.86;64.31
72428;BME280;60419;48.880;18.036;2023-04-15T08:17:11;97995.41;;;9.77;63.62
72428;BME280;60419;48.880;18.036;2023-04-15T08:19:56;98006.22;;;9.29;64.24
72428;BME280;60419;48.880;18.036;2023-04-15T08:22:42;98009.75;;;9.98;64.64
72428;BME280;60419;48.880;18.036;2023-04-15T08:25:27;98015.09;;;9.77;66.54
72428;BME280;60419;48.880;18.036;2023-04-15T08:28:13;98016.19;;;9.76;65.36
72428;BME280;60419;48.880;18.036;2023-04-15T08:30:58;98004.59;;;9.46;66.36
72428;BME280;60419;48.880;18.036;2023-04-15T08:33:44;98015.09;;;9.21;68.35
72428;BME280;60419;48.880;18.036;2023-04-15T08:36:30;98013.41;;;9.93;64.95
72428;BME280;60419;48.880;18.036;2023-04-15T08:39:16;98006.09;;;9.94;68.85
72428;BME280;60419;48.880;18.036;2023-04-15T08:42:03;98019.13;;;9.92;66.65
72428;BME280;60419;48.880;18.036;2023-04-15T08:44:52;98001.59;;;10.07;65.56
72428;BME280;60419;48.880;18.036;2023-04-15T08:47:37;98012.00;;;10.38;64.47
72428;BME280;60419;48.880;18.036;2023-04-15T08:50:25;98019.31;;;10.16;65.02
72428;BME280;60419;48.880;18.036;2023-04-15T08:53:13;98010.16;;;10.72;63.02
72428;BME280;60419;48.880;18.036;2023-04-15T08:56:03;98019.34;;;10.37;62.58
72428;BME280;60419;48.880;18.036;2023-04-15T08:58:49;98027.09;;;10.39;63.39
72428;BME280;60419;48.880;18.036;2023-04-15T09:01:36;98025.31;;;10.43;62.87
72428;BME280;60419;48.880;18.036;2023-04-15T09:04:22;98023.34;;;10.73;62.08
72428;BME280;60419;48.880;18.036;2023-04-15T09:07:07;98014.69;;;10.80;62.07
72428;BME280;60419;48.880;18.036;2023-04-15T09:09:53;98020.28;;;10.96;61.76
72428;BME280;60419;48.880;18.036;2023-04-15T09:12:38;98025.72;;;10.54;61.85
72428;BME280;60419;48.880;18.036;2023-04-15T09:15:24;98019.31;;;10.79;60.33
72428;BME280;60419;48.880;18.036;2023-04-15T09:18:11;98030.69;;;11.06;60.99
72428;BME280;60419;48.880;18.036;2023-04-15T09:21:14;98030.41;;;10.87;59.77
72428;BME280;60419;48.880;18.036;2023-04-15T09:24:00;98029.75;;;11.23;59.45
72428;BME280;60419;48.880;18.036;2023-04-15T09:26:46;98021.16;;;10.88;60.00
72428;BME280;60419;48.880;18.036;2023-04-15T09:29:32;98032.94;;;10.20;61.65
72428;BME280;60419;48.880;18.036;2023-04-15T09:32:17;98038.28;;;10.29;61.77
72428;BME280;60419;48.880;18.036;2023-04-15T09:35:12;98024.34;;;10.69;59.48
72428;BME280;60419;48.880;18.036;2023-04-15T09:38:06;98041.41;;;10.39;61.08
72428;BME280;60419;48.880;18.036;2023-04-15T09:40:52;98019.00;;;10.81;59.79
72428;BME280;60419;48.880;18.036;2023-04-15T09:43:38;98033.66;;;11.13;58.97
72428;BME280;60419;48.880;18.036;2023-04-15T09:46:42;98034.28;;;10.98;58.28
72428;BME280;60419;48.880;18.036;2023-04-15T09:49:28;98052.66;;;10.83;58.55
72428;BME280;60419;48.880;18.036;2023-04-15T09:52:13;98050.88;;;10.46;59.21
72428;BME280;60419;48.880;18.036;2023-04-15T09:54:59;98059.16;;;10.61;59.10
72428;BME280;60419;48.880;18.036;2023-04-15T09:57:45;98048.69;;;10.81;58.49
72428;BME280;60419;48.880;18.036;2023-04-15T10:00:31;98051.78;;;11.13;57.94
72428;BME280;60419;48.880;18.036;2023-04-15T10:03:24;98068.53;;;11.39;56.44
72428;BME280;60419;48.880;18.036;2023-04-15T10:06:10;98055.22;;;11.34;55.96
72428;BME280;60419;48.880;18.036;2023-04-15T10:08:59;98064.28;;;11.17;56.17
72428;BME280;60419;48.880;18.036;2023-04-15T10:11:46;98059.78;;;10.88;57.89
72428;BME280;60419;48.880;18.036;2023-04-15T10:14:34;98055.16;;;11.10;58.49
72428;BME280;60419;48.880;18.036;2023-04-15T10:17:25;98056.47;;;11.03;58.05
72428;BME280;60419;48.880;18.036;2023-04-15T10:20:12;98064.69;;;11.40;56.65
72428;BME280;60419;48.880;18.036;2023-04-15T10:22:59;98059.50;;;11.02;57.62
72428;BME280;60419;48.880;18.036;2023-04-15T10:25:46;98060.91;;;10.87;57.98
72428;BME280;60419;48.880;18.036;2023-04-15T10:28:33;98056.97;;;11.18;57.50
72428;BME280;60419;48.880;18.036;2023-04-15T10:31:19;98067.66;;;10.51;58.34
72428;BME280;60419;48.880;18.036;2023-04-15T10:34:05;98056.34;;;10.58;57.53
72428;BME280;60419;48.880;18.036;2023-04-15T10:36:54;98053.81;;;10.32;59.10
72428;BME280;60419;48.880;18.036;2023-04-15T10:39:42;98037.38;;;10.67;58.64
72428;BME280;60419;48.880;18.036;2023-04-15T10:42:33;98058.66;;;11.10;56.85
72428;BME280;60419;48.880;18.036;2023-04-15T10:45:19;98050.31;;;11.15;55.30
72428;BME280;60419;48.880;18.036;2023-04-15T10:48:06;98038.31;;;10.92;56.68
72428;BME280;60419;48.880;18.036;2023-04-15T10:50:56;98041.75;;;11.71;54.74
72428;BME280;60419;48.880;18.036;2023-04-15T10:53:41;98052.03;;;11.78;53.44
72428;BME280;60419;48.880;18.036;2023-04-15T10:56:28;98042.78;;;12.16;52.94
72428;BME280;60419;48.880;18.036;2023-04-15T10:59:15;98048.41;;;11.98;53.95
72428;BME280;60419;48.880;18.036;2023-04-15T11:02:05;98052.03;;;11.90;54.59
72428;BME280;60419;48.880;18.036;2023-04-15T11:04:54;98040.63;;;12.21;53.27
72428;BME280;60419;48.880;18.036;2023-04-15T11:13:22;98028.78;;;11.77;54.76
72428;BME280;60419;48.880;18.036;2023-04-15T11:16:09;98046.19;;;12.77;54.42
72428;BME280;60419;48.880;18.036;2023-04-15T11:18:55;98032.94;;;12.48;52.92
72428;BME280;60419;48.880;18.036;2023-04-15T11:21:40;98040.78;;;12.65;52.37
72428;BME280;60419;48.880;18.036;2023-04-15T11:24:26;98040.88;;;12.28;54.47
72428;BME280;60419;48.880;18.036;2023-04-15T11:27:22;98042.31;;;12.78;52.20
72428;BME280;60419;48.880;18.036;2023-04-15T11:30:18;98036.13;;;12.78;51.89
72428;BME280;60419;48.880;18.036;2023-04-15T11:33:09;98036.91;;;12.38;51.86
72428;BME280;60419;48.880;18.036;2023-04-15T11:35:56;98032.75;;;12.97;51.19
72428;BME280;60419;48.880;18.036;2023-04-15T11:38:42;98037.84;;;12.70;52.07
72428;BME280;60419;48.880;18.036;2023-04-15T11:41:28;98037.88;;;12.86;51.04
72428;BME280;60419;48.880;18.036;2023-04-15T11:44:17;98036.81;;;12.75;51.24
72428;BME280;60419;48.880;18.036;2023-04-15T11:47:21;98054.34;;;12.65;51.01
72428;BME280;60419;48.880;18.036;2023-04-15T11:50:33;98049.63;;;12.50;50.72
72428;BME280;60419;48.880;18.036;2023-04-15T11:53:18;98047.75;;;12.38;50.81
72428;BME280;60419;48.880;18.036;2023-04-15T11:56:04;98051.06;;;12.60;50.47
72428;BME280;60419;48.880;18.036;2023-04-15T11:58:57;98044.34;;;12.41;50.51
72428;BME280;60419;48.880;18.036;2023-04-15T12:01:43;98050.53;;;12.54;51.01
72428;BME280;60419;48.880;18.036;2023-04-15T12:04:30;98043.72;;;12.60;48.77
72428;BME280;60419;48.880;18.036;2023-04-15T12:07:16;98041.22;;;12.79;49.34
72428;BME280;60419;48.880;18.036;2023-04-15T12:10:02;98047.94;;;12.86;49.09
72428;BME280;60419;48.880;18.036;2023-04-15T12:12:51;98046.44;;;13.00;48.73
72428;BME280;60419;48.880;18.036;2023-04-15T12:15:37;98059.78;;;12.93;49.65
72428;BME280;60419;48.880;18.036;2023-04-15T12:18:24;98055.75;;;12.87;50.22
72428;BME280;60419;48.880;18.036;2023-04-15T12:21:09;98048.25;;;12.96;50.08
72428;BME280;60419;48.880;18.036;2023-04-15T12:23:56;98041.63;;;12.82;49.83
72428;BME280;60419;48.880;18.036;2023-04-15T12:26:49;98044.63;;;12.64;50.52
72428;BME280;60419;48.880;18.036;2023-04-15T12:29:39;98041.53;;;12.13;51.39
72428;BME280;60419;48.880;18.036;2023-04-15T12:32:25;98064.28;;;11.17;57.77
72428;BME280;60419;48.880;18.036;2023-04-15T12:35:12;98056.91;;;9.54;66.05
72428;BME280;60419;48.880;18.036;2023-04-15T12:37:57;98072.13;;;9.49;68.94
72428;BME280;60419;48.880;18.036;2023-04-15T12:40:45;98078.44;;;10.01;67.45
72428;BME280;60419;48.880;18.036;2023-04-15T12:43:31;98070.06;;;9.93;66.85
72428;BME280;60419;48.880;18.036;2023-04-15T12:46:16;98078.88;;;9.73;66.92
72428;BME280;60419;48.880;18.036;2023-04-15T12:49:02;98070.72;;;9.82;66.71
72428;BME280;60419;48.880;18.036;2023-04-15T12:51:48;98080.13;;;10.14;71.73
72428;BME280;60419;48.880;18.036;2023-04-15T12:54:34;98083.13;;;9.83;67.26
72428;BME280;60419;48.880;18.036;2023-04-15T12:57:20;98067.59;;;9.71;68.37
72428;BME280;60419;48.880;18.036;2023-04-15T13:00:06;98075.03;;;9.83;68.00
72428;BME280;60419;48.880;18.036;2023-04-15T13:02:53;98086.28;;;9.85;67.81
72428;BME280;60419;48.880;18.036;2023-04-15T13:05:39;98086.91;;;9.82;67.39
72428;BME280;60419;48.880;18.036;2023-04-15T13:08:25;98089.91;;;9.89;67.57
72428;BME280;60419;48.880;18.036;2023-04-15T13:11:11;98089.56;;;9.99;66.55
72428;BME280;60419;48.880;18.036;2023-04-15T13:13:56;98087.00;;;10.32;64.76
72428;BME280;60419;48.880;18.036;2023-04-15T13:16:42;98081.94;;;10.73;64.57
72428;BME280;60419;48.880;18.036;2023-04-15T13:19:28;98094.34;;;10.74;64.36
72428;BME280;60419;48.880;18.036;2023-04-15T13:22:13;98104.06;;;10.45;64.04
72428;BME280;60419;48.880;18.036;2023-04-15T13:24:59;98107.75;;;10.41;64.16
72428;BME280;60419;48.880;18.036;2023-04-15T13:27:45;98107.28;;;9.70;65.26
72428;BME280;60419;48.880;18.036;2023-04-15T13:30:30;98107.44;;;10.42;64.08
72428;BME280;60419;48.880;18.036;2023-04-15T13:33:16;98102.94;;;11.18;62.58
72428;BME280;60419;48.880;18.036;2023-04-15T13:36:02;98108.63;;;11.37;61.13
72428;BME280;60419;48.880;18.036;2023-04-15T13:38:48;98112.31;;;10.19;63.91
72428;BME280;60419;48.880;18.036;2023-04-15T13:41:33;98103.72;;;10.76;62.67
72428;BME280;60419;48.880;18.036;2023-04-15T13:44:18;98113.94;;;11.13;62.47
72428;BME280;60419;48.880;18.036;2023-04-15T13:47:04;98123.06;;;12.85;56.87
72428;BME280;60419;48.880;18.036;2023-04-15T13:49:50;98132.66;;;12.70;56.94
72428;BME280;60419;48.880;18.036;2023-04-15T13:52:37;98144.22;;;12.43;61.06
72428;BME280;60419;48.880;18.036;2023-04-15T13:55:22;98153.06;;;13.33;67.09
72428;BME280;60419;48.880;18.036;2023-04-15T13:58:08;98149.28;;;11.62;58.71
72428;BME280;60419;48.880;18.036;2023-04-15T14:00:53;98173.63;;;10.48;60.75
72428;BME280;60419;48.880;18.036;2023-04-15T14:03:39;98158.25;;;10.02;63.91
72428;BME280;60419;48.880;18.036;2023-04-15T14:06:24;98161.59;;;9.99;66.62
72428;BME280;60419;48.880;18.036;2023-04-15T14:09:11;98165.81;;;9.70;68.95
72428;BME280;60419;48.880;18.036;2023-04-15T14:11:56;98165.25;;;10.03;67.66
72428;BME280;60419;48.880;18.036;2023-04-15T14:14:44;98168.91;;;9.89;67.17
72428;BME280;60419;48.880;18.036;2023-04-15T14:17:30;98161.50;;;10.25;67.09
72428;BME280;60419;48.880;18.036;2023-04-15T14:20:15;98164.13;;;10.42;65.60
72428;BME280;60419;48.880;18.036;2023-04-15T14:23:01;98159.53;;;10.04;67.24
72428;BME280;60419;48.880;18.036;2023-04-15T14:25:46;98169.97;;;10.14;67.44
72428;BME280;60419;48.880;18.036;2023-04-15T14:28:31;98167.00;;;10.37;66.47
72428;BME280;60419;48.880;18.036;2023-04-15T14:31:18;98175.38;;;10.44;66.42
72428;BME280;60419;48.880;18.036;2023-04-15T14:34:03;98147.78;;;10.38;66.42
72428;BME280;60419;48.880;18.036;2023-04-15T14:36:48;98182.22;;;9.94;67.53
72428;BME280;60419;48.880;18.036;2023-04-15T14:39:34;98189.22;;;10.34;66.13
72428;BME280;60419;48.880;18.036;2023-04-15T14:42:19;98167.66;;;10.64;64.47
72428;BME280;60419;48.880;18.036;2023-04-15T14:45:05;98179.00;;;10.19;65.84